Old Boston, Texas
Current Conditions -  °F | °C
As of 7:53 AM on Saturday 22 Nov 2014 (Local Time) from KTXK Reporting Station
Overcast Overcast  
Wind Chill: 56°   Ceiling: 2800
Heat Index: 56°   Visibility: 10mi
Dew Point: 52°   Wind: 12mph
Humidity: 87%   Direction: 140°SE
Pressure: 30.15"   Gusts: 22mph
Location:  33.4799°N, 94.4582°W
Report Text: KTXK 221353Z 14010G19KT 10SM OVC028 13/11 A3015 RMK AO2 RAB37E47 SLP207 P0000 T01330111
Loading
Personal Weather Stations






























Interactive Weather Map New forecast layout! Learn more

10-Day Weather Forecast

Advertisements
Track Severe Weather on mobile